Naples, FL

8:14 AM EDT on August 24, 2016 (GMT -0400)
Naples Municipal | | Change Station

Elev 10 ft 26.16 °N, 81.77 °W | Updated 21 minutes ago

Partly Cloudy
Partly Cloudy
80 °F
Feels Like 86 °F
N
5
Wind Variable Wind from North

Today
High -- | Low -- °F
--% Chance of Precip.
Yesterday
High -- | Low -- °F
Precip. -- in
Pressure 30.08 in
Visibility 8.0 miles
Clouds Few 1800 ft
Heat Index 86 °F
Dew Point 78 °F
Humidity 94%
Rainfall 0.00 in
Snow Depth Not available.
7:03 AM 7:54 PM
Waning Gibbous, 57% visible
METAR KAPF 241153Z 36004KT 8SM FEW018 27/26 A3008 RMK AO2 SLP186 T02670256 10272 20256 53009
Pressure 30.08 in
Visibility 8.0 miles
Clouds Few 1800 ft
Heat Index 86 °F
Dew Point 78 °F
Humidity 94%
Rainfall 0.00 in
Snow Depth Not available.
7:03 AM 7:54 PM
Waning Gibbous, 57% visible
METAR KAPF 241153Z 36004KT 8SM FEW018 27/26 A3008 RMK AO2 SLP186 T02670256 10272 20256 53009

10-Day Weather Forecast

Almanac

Astronomy

Aug. 24, 2016 Rise Set
Actual Time
Civil Twilight
Nautical Twilight
Astronomical Twilight
Moon
Length of Visible Light
Length of Day
Tomorrow will be .
, % of the Moon is Illuminated

Today's Extremes

State Highs State Lows

Community

WunderPhotos

Upload Photos

1,934,578 photos uploaded!

WunderBlog® & News

Nearby

Air Quality

  Air Quality AQ Index Pollutant
Not available.

Snow Depth

Station Depth Elevation

Earthquake Activity

City Distance Mag. Time & Date
Minimum magnitude displayed is 2.5.

Coastal Water Temperatures

Place Temperature

Stations

Nearby Weather Stations

Station Location Temp. Windchill Dew Point Humidity Wind Precip. Elev Updated Type
                   

Watches & Warnings

There are currently no watches in effect.